createdAt,value
2023-04-01T00:03:06.454Z,98673.59
2023-04-01T00:13:12.400Z,98664.44
2023-04-01T00:18:15.536Z,98655.69
2023-04-01T00:23:19.707Z,98668.25
2023-04-01T00:28:22.985Z,98669.41
2023-04-01T00:33:25.958Z,98659.94
2023-04-01T00:38:28.917Z,98672.13
2023-04-01T00:43:32.134Z,98672.09
2023-04-01T00:48:37.915Z,98676.66
2023-04-01T00:54:00.740Z,98669.41
2023-04-01T00:59:09.654Z,98681.19
2023-04-01T01:04:30.028Z,98669.78
2023-04-01T01:09:57.502Z,98675.53
2023-04-01T01:15:16.215Z,98672.44
2023-04-01T01:20:34.253Z,98681.97
2023-04-01T01:26:27.573Z,98689.50
2023-04-01T01:31:48.423Z,98685.72
2023-04-01T01:36:57.292Z,98694.81
2023-04-01T01:42:05.550Z,98687.91
2023-04-01T01:47:09.352Z,98695.50
2023-04-01T01:52:14.040Z,98693.53
2023-04-01T01:57:19.199Z,98706.72
2023-04-01T02:02:27.110Z,98696.88
2023-04-01T02:07:34.470Z,98697.66
2023-04-01T02:12:39.297Z,98697.97
2023-04-01T02:17:47.354Z,98708.94
2023-04-01T02:22:56.380Z,98706.59
2023-04-01T02:28:02.012Z,98712.25
2023-04-01T02:33:06.948Z,98713.41
2023-04-01T02:38:10.342Z,98718.66
2023-04-01T02:43:13.706Z,98730.88
2023-04-01T02:48:16.515Z,98747.91
2023-04-01T02:53:19.830Z,98739.97
2023-04-01T02:58:22.884Z,98746.81
2023-04-01T03:03:26.443Z,98754.06
2023-04-01T03:08:30.034Z,98748.81
2023-04-01T03:13:51.442Z,98748.06
2023-04-01T03:18:56.590Z,98748.81
2023-04-01T03:24:00.145Z,98757.59
2023-04-01T03:29:05.014Z,98761.44
2023-04-01T03:34:07.931Z,98766.00
2023-04-01T03:39:11.089Z,98774.06
2023-04-01T03:44:17.937Z,98784.72
2023-04-01T03:49:25.265Z,98797.69
2023-04-01T03:54:28.434Z,98803.38
2023-04-01T03:59:31.868Z,98816.34
2023-04-01T04:04:35.643Z,98815.25
2023-04-01T04:09:38.632Z,98817.72
2023-04-01T04:14:41.777Z,98828.91
2023-04-01T04:19:44.874Z,98832.31
2023-04-01T04:24:48.653Z,98831.94
2023-04-01T04:29:51.578Z,98841.63
2023-04-01T04:34:54.898Z,98846.22
2023-04-01T04:39:57.852Z,98850.06
2023-04-01T04:45:00.781Z,98856.56
2023-04-01T04:50:04.866Z,98872.53
2023-04-01T04:55:08.739Z,98881.34
2023-04-01T05:00:12.667Z,98889.09
2023-04-01T05:05:25.092Z,98897.44
2023-04-01T05:10:27.971Z,98909.69
2023-04-01T05:15:31.244Z,98915.56
2023-04-01T05:20:34.616Z,98921.78
2023-04-01T05:25:39.434Z,98927.88
2023-04-01T05:30:43.534Z,98952.31
2023-04-01T05:36:16.457Z,98951.28
2023-04-01T05:41:19.663Z,98960.06
2023-04-01T05:46:22.889Z,98956.81
2023-04-01T05:51:31.874Z,98964.13
2023-04-01T05:56:35.312Z,98974.84
2023-04-01T06:01:39.077Z,98974.34
2023-04-01T06:06:41.947Z,98983.56
2023-04-01T06:11:47.335Z,98969.91
2023-04-01T06:17:20.903Z,98976.75
2023-04-01T06:22:37.942Z,98995.44
2023-04-01T06:28:04.300Z,98999.63
2023-04-01T06:33:31.266Z,99021.03
2023-04-01T06:38:52.846Z,99019.53
2023-04-01T06:44:26.447Z,99031.38
2023-04-01T06:49:57.969Z,99025.25
2023-04-01T06:55:43.412Z,99019.50
2023-04-01T07:01:11.192Z,99003.09
2023-04-01T07:06:25.097Z,99028.59
2023-04-01T07:11:35.542Z,99036.66
2023-04-01T07:17:22.272Z,99055.69
2023-04-01T07:22:33.950Z,99046.88
2023-04-01T07:27:51.651Z,99060.22
2023-04-01T07:33:10.236Z,99047.94
2023-04-01T07:38:26.782Z,99062.56
2023-04-01T07:43:53.899Z,99051.81
2023-04-01T07:49:40.416Z,99055.50
2023-04-01T07:54:46.571Z,99046.25
2023-04-01T08:00:12.560Z,99059.06
2023-04-01T08:06:09.032Z,99055.28
2023-04-01T08:11:27.330Z,99074.34
2023-04-01T08:16:58.492Z,99079.34
2023-04-01T08:22:19.065Z,99078.00
2023-04-01T08:27:24.450Z,99067.22
2023-04-01T08:32:43.904Z,99059.53
2023-04-01T08:37:51.605Z,99067.09
2023-04-01T08:43:30.297Z,99062.88
2023-04-01T08:48:52.356Z,99065.75
2023-04-01T08:54:39.321Z,99082.69
2023-04-01T09:00:02.264Z,99080.06
2023-04-01T09:05:54.021Z,99077.25
2023-04-01T09:11:09.375Z,99081.41
2023-04-01T09:16:42.430Z,99076.34
2023-04-01T09:22:02.006Z,99079.66
2023-04-01T09:27:27.579Z,99092.97
2023-04-01T09:33:12.663Z,99099.09
2023-04-01T09:38:24.859Z,99095.00
2023-04-01T09:43:49.433Z,99090.34
2023-04-01T09:49:15.146Z,99084.69
2023-04-01T09:54:36.413Z,99101.22
2023-04-01T09:59:41.871Z,99084.09
2023-04-01T10:05:11.386Z,99088.25
2023-04-01T10:10:21.056Z,99090.53
2023-04-01T10:16:01.373Z,99104.56
2023-04-01T10:21:20.145Z,99112.69
2023-04-01T10:26:46.382Z,99103.56
2023-04-01T10:32:27.365Z,99121.53
2023-04-01T10:37:45.402Z,99131.25
2023-04-01T10:43:13.086Z,99123.47
2023-04-01T10:48:53.127Z,99131.53
2023-04-01T10:54:33.525Z,99150.72
2023-04-01T11:00:38.496Z,99162.88
2023-04-01T11:06:13.268Z,99161.22
2023-04-01T11:11:53.417Z,99157.47
2023-04-01T11:17:18.998Z,99172.53
2023-04-01T11:23:09.164Z,99165.28
2023-04-01T11:28:31.174Z,99174.41
2023-04-01T11:33:51.741Z,99170.94
2023-04-01T11:39:10.013Z,99178.69
2023-04-01T11:44:54.759Z,99163.19
2023-04-01T11:50:07.785Z,99171.88
2023-04-01T11:56:09.773Z,99168.66
2023-04-01T12:01:46.239Z,99174.44
2023-04-01T12:07:27.126Z,99164.19
2023-04-01T12:13:00.830Z,99174.31
2023-04-01T12:18:14.376Z,99165.19
2023-04-01T12:23:35.712Z,99174.34
2023-04-01T12:29:18.222Z,99154.28
2023-04-01T12:34:59.947Z,99187.09
2023-04-01T12:40:21.814Z,99187.44
2023-04-01T12:45:32.304Z,99184.84
2023-04-01T12:51:13.220Z,99197.06
2023-04-01T12:56:39.619Z,99198.50
2023-04-01T13:01:56.666Z,99203.47
2023-04-01T13:07:18.030Z,99209.16
2023-04-01T13:12:40.089Z,99217.91
2023-04-01T13:18:07.865Z,99212.34
2023-04-01T13:23:51.978Z,99214.53
2023-04-01T13:29:17.069Z,99222.06
2023-04-01T13:34:28.979Z,99224.41
2023-04-01T13:39:50.685Z,99228.31
2023-04-01T13:45:18.319Z,99224.50
2023-04-01T13:50:27.015Z,99232.91
2023-04-01T13:55:33.167Z,99232.50
2023-04-01T14:01:04.288Z,99240.69
2023-04-01T14:06:11.952Z,99238.06
2023-04-01T14:11:49.945Z,99251.31
2023-04-01T14:17:18.680Z,99259.72
2023-04-01T14:22:44.521Z,99267.47
2023-04-01T14:28:20.202Z,99265.13
2023-04-01T14:33:43.079Z,99264.81
2023-04-01T14:38:51.950Z,99265.41
2023-04-01T14:43:54.788Z,99280.50
2023-04-01T14:49:02.096Z,99276.00
2023-04-01T14:54:43.150Z,99277.53
2023-04-01T15:00:10.596Z,99276.47
2023-04-01T15:05:13.467Z,99289.75
2023-04-01T15:10:41.197Z,99300.72
2023-04-01T15:15:44.034Z,99299.00
2023-04-01T15:21:03.713Z,99300.03
2023-04-01T15:26:22.395Z,99312.91
2023-04-01T15:31:49.383Z,99310.97
2023-04-01T15:37:06.104Z,99334.47
2023-04-01T15:42:27.913Z,99331.09
2023-04-01T15:47:54.445Z,99339.97
2023-04-01T15:53:06.069Z,99357.00
2023-04-01T15:58:29.432Z,99360.06
2023-04-01T16:03:45.624Z,99371.66
2023-04-01T16:09:11.903Z,99377.66
2023-04-01T16:14:27.091Z,99381.75
2023-04-01T16:20:05.485Z,99384.25
2023-04-01T16:25:48.706Z,99396.63
2023-04-01T16:31:28.976Z,99394.09
2023-04-01T16:36:41.020Z,99390.03
2023-04-01T16:42:45.807Z,99399.34
2023-04-01T16:47:49.154Z,99401.69
2023-04-01T16:53:02.203Z,99399.06
2023-04-01T16:58:07.308Z,99408.34
2023-04-01T17:03:23.176Z,99406.78
2023-04-01T17:09:06.642Z,99410.97
2023-04-01T17:14:46.812Z,99417.41
2023-04-01T17:20:21.057Z,99418.25
2023-04-01T17:25:39.534Z,99425.84
2023-04-01T17:31:00.989Z,99430.78
2023-04-01T17:36:13.789Z,99428.13
2023-04-01T17:41:37.725Z,99439.25
2023-04-01T17:47:04.956Z,99433.84
2023-04-01T17:52:33.594Z,99439.06
2023-04-01T17:58:08.067Z,99452.13
2023-04-01T18:03:42.036Z,99458.25
2023-04-01T18:09:29.974Z,99457.94
2023-04-01T18:15:14.248Z,99459.44
2023-04-01T18:20:26.383Z,99463.66
2023-04-01T18:25:43.624Z,99463.66
2023-04-01T18:31:11.083Z,99473.34
2023-04-01T18:36:43.322Z,99476.78
2023-04-01T18:41:46.293Z,99470.69
2023-04-01T18:47:38.173Z,99474.94
2023-04-01T18:52:44.618Z,99476.78
2023-04-01T18:58:15.107Z,99485.28
2023-04-01T19:03:28.095Z,99489.13
2023-04-01T19:08:35.189Z,99482.25
2023-04-01T19:14:10.109Z,99485.72
2023-04-01T19:19:46.514Z,99494.91
2023-04-01T19:25:24.848Z,99490.69
2023-04-01T19:30:37.309Z,99494.19
2023-04-01T19:36:00.159Z,99487.28
2023-04-01T19:41:21.528Z,99486.53
2023-04-01T19:46:46.275Z,99498.84
2023-04-01T19:52:29.109Z,99485.03
2023-04-01T19:57:37.917Z,99495.34
2023-04-01T20:03:04.800Z,99495.72
2023-04-01T20:08:17.482Z,99503.44
2023-04-01T20:13:23.449Z,99510.72
2023-04-01T20:18:35.888Z,99504.25
2023-04-01T20:24:16.186Z,99508.03
2023-04-01T20:29:57.035Z,99507.63
2023-04-01T20:35:24.240Z,99506.88
2023-04-01T20:40:36.540Z,99502.63
2023-04-01T20:46:07.099Z,99504.56
2023-04-01T20:51:25.308Z,99510.81
2023-04-01T20:57:01.758Z,99515.41
2023-04-01T21:02:43.590Z,99516.53
2023-04-01T21:07:58.024Z,99522.28
2023-04-01T21:13:40.614Z,99522.34
2023-04-01T21:19:06.401Z,99523.13
2023-04-01T21:24:39.465Z,99519.78
2023-04-01T21:30:04.657Z,99519.38
2023-04-01T21:35:41.366Z,99527.06
2023-04-01T21:41:04.240Z,99522.84
2023-04-01T21:46:34.894Z,99524.00
2023-04-01T21:51:40.960Z,99514.78
2023-04-01T21:57:22.500Z,99510.25
2023-04-01T22:02:43.690Z,99510.59
2023-04-01T22:08:17.453Z,99511.78
2023-04-01T22:13:29.650Z,99519.84
2023-04-01T22:18:47.563Z,99521.00
2023-04-01T22:23:53.531Z,99519.09
2023-04-01T22:29:07.989Z,99517.56
2023-04-01T22:34:23.341Z,99507.28
2023-04-01T22:39:50.095Z,99511.94
2023-04-01T22:45:07.506Z,99520.81
2023-04-01T22:50:51.798Z,99524.75
2023-04-01T22:55:59.369Z,99524.78
2023-04-01T23:01:08.912Z,99525.94
2023-04-01T23:06:36.804Z,99529.03
2023-04-01T23:11:47.926Z,99525.19
2023-04-01T23:17:04.875Z,99534.41
2023-04-01T23:22:17.879Z,99529.81
2023-04-01T23:27:40.743Z,99531.75
2023-04-01T23:32:43.738Z,99530.63
2023-04-01T23:37:47.247Z,99545.94
2023-04-01T23:42:50.231Z,99530.22
2023-04-01T23:47:53.763Z,99535.97
2023-04-01T23:53:02.777Z,99537.53
2023-04-01T23:58:17.944Z,99550.59
